Flight Track Log - Related Links

Times and Time Zones

All times are in EDT time to prevent confusion due to time zone crossing. See the CSN6087 flight status page for this flight to view local times or setup timezone preferences in your user account.

Time Position Orientation Groundspeed Altitude Reporting Facility
EDT Latitude Longitude Course Direction KTS MPH feet Rate Location/Type
Tue 03:51:00 AM 43.8868 129.2562 199° South  Level Estimated
Tue 03:52:00 AM 43.8230 129.2253 199° South  Level Estimated
Tue 03:53:00 AM 43.7592 129.1945 199° South  Level Estimated
Tue 03:54:00 AM 43.6954 129.1637 199° South  Level Estimated
Tue 03:55:00 AM 43.6316 129.1330 199° South  Level Estimated
Tue 03:56:00 AM 43.5678 129.1024 199° South  Level Estimated
Tue 03:57:00 AM 43.5040 129.0718 199° South  Level Estimated
Tue 03:58:00 AM 43.4402 129.0413 199° South  Level Estimated
Tue 03:59:00 AM 43.3764 129.0108 199° South  Level Estimated
Tue 04:00:00 AM 43.3125 128.9805 199° South  Level Estimated
Tue 04:01:00 AM 43.2487 128.9501 199° South  Level Estimated
Tue 04:02:00 AM 43.1848 128.9199 199° South  Level Estimated
Tue 04:03:00 AM 43.1209 128.8897 199° South  Level Estimated
Tue 04:04:00 AM 43.0571 128.8595 199° South  Level Estimated
Tue 04:05:00 AM 42.9932 128.8295 199° South  Level Estimated
Tue 04:06:00 AM 42.9293 128.7995 199° South  Level Estimated
Tue 04:07:00 AM 42.8654 128.7695 199° South  Level Estimated
Tue 04:08:00 AM 42.8015 128.7397 199° South  Level Estimated
Tue 04:09:00 AM 42.7376 128.7098 199° South  Level Estimated
Tue 04:10:00 AM 42.6737 128.6801 199° South  Level Estimated
Tue 04:11:00 AM 42.6097 128.6504 199° South  Level Estimated
Tue 04:12:00 AM 42.5458 128.6207 199° South  Level Estimated
Tue 04:13:00 AM 42.4819 128.5912 199° South  Level Estimated
Tue 04:14:00 AM 42.4179 128.5616 199° South  Level Estimated
Tue 04:15:00 AM 42.3540 128.5322 199° South  Level Estimated
Tue 04:16:00 AM 42.2900 128.5028 199° South  Level Estimated
Tue 04:17:00 AM 42.2260 128.4735 199° South  Level Estimated
Tue 04:18:00 AM 42.1620 128.4442 199° South  Level Estimated
Tue 04:19:00 AM 42.0980 128.4150 199° South  Level Estimated
Tue 04:20:00 AM 42.0340 128.3858 199° South  Level Estimated
Tue 04:21:00 AM 41.9701 128.3567 199° South  Level Estimated
Tue 04:22:00 AM 41.9060 128.3277 199° South  Level Estimated
Tue 04:23:00 AM 41.8420 128.2987 199° South  Level Estimated
Tue 04:24:00 AM 41.7780 128.2698 199° South  Level Estimated
Tue 04:25:00 AM 41.7140 128.2409 199° South  Level Estimated
Tue 04:26:00 AM 41.6499 128.2121 199° South  Level Estimated
Tue 04:27:00 AM 41.5859 128.1833 199° South  Level Estimated
Tue 04:28:00 AM 41.5218 128.1546 199° South  Level Estimated
Tue 04:29:00 AM 41.4578 128.1260 199° South  Level Estimated
Tue 04:30:00 AM 41.3937 128.0974 199° South  Level Estimated
Tue 04:31:00 AM 41.3296 128.0689 198° South  Level Estimated
Tue 04:32:00 AM 41.2655 128.0404 198° South  Level Estimated
Tue 04:33:00 AM 41.2015 128.0120 198° South  Level Estimated
Tue 04:34:00 AM 41.1374 127.9837 198° South  Level Estimated
Tue 04:35:00 AM 41.0733 127.9554 198° South  Level Estimated
Tue 04:36:00 AM 41.0092 127.9271 198° South  Level Estimated
Tue 04:37:00 AM 40.9450 127.8989 198° South  Level Estimated
Tue 04:38:00 AM 40.8809 127.8708 198° South  Level Estimated
Tue 04:39:00 AM 40.8168 127.8427 198° South  Level Estimated
Tue 04:40:00 AM 40.7526 127.8147 198° South  Level Estimated
Tue 04:41:00 AM 40.6885 127.7867 198° South  Level Estimated
Tue 04:42:00 AM 40.6244 127.7588 198° South  Level Estimated
Tue 04:43:00 AM 40.5602 127.7309 198° South  Level Estimated
Tue 04:44:00 AM 40.4960 127.7031 198° South  Level Estimated
Tue 04:45:00 AM 40.4319 127.6753 198° South  Level Estimated
Tue 04:46:00 AM 40.3677 127.6476 198° South  Level Estimated
Tue 04:47:00 AM 40.3035 127.6199 198° South  Level Estimated
Tue 04:48:00 AM 40.2393 127.5923 198° South  Level Estimated
Tue 04:49:00 AM 40.1751 127.5648 198° South  Level Estimated
Tue 04:50:00 AM 40.1109 127.5373 198° South  Level Estimated
Tue 04:50:25 AM 38.9203 122.4962 188° South 449 517 34,100  Level FlightAware ADS-B (ZSQD / TAO)
Tue 04:50:54 AM 38.8625 122.4868 188° South 452 520 34,100 -369 Level FlightAware ADS-B (ZSQD / TAO)
Tue 04:51:30 AM 38.7924 122.4758 188° South 452 520 33,700 -818 Descending FlightAware ADS-B (ZSQD / TAO)
Tue 04:52:00 AM 38.7239 122.4649 188° South 452 520 33,200 -720 Descending FlightAware ADS-B (ZSQD / TAO)
Tue 04:52:20 AM 38.6938 122.4601 188° South 451 519 33,100 -105 Descending FlightAware ADS-B (ZSQD / TAO)
Tue 04:52:57 AM 38.6113 122.4374 203° Southwest 451 519 33,100  Level FlightAware ADS-B (ZSQD / TAO)
Tue 04:53:55 AM 38.5004 122.3707 195° South 451 519 33,100  Level FlightAware ADS-B (ZSQD / TAO)
Tue 04:54:25 AM 38.4366 122.3610 182° South 456 525 33,100  Level FlightAware ADS-B (ZSQD / TAO)
Tue 04:55:14 AM 38.3337 122.3726 176° South 457 526 33,100 -326 Level FlightAware ADS-B (ZSQD / TAO)
Tue 04:55:57 AM 38.2457 122.4007 164° South 456 525 32,600 -1,132 Descending FlightAware ADS-B (ZSQD / TAO)
Tue 04:57:00 AM 38.1241 122.4723 148° Southeast 460 529 31,100 -1,438 Descending FlightAware ADS-B (ZSQD / TAO)
Tue 04:57:33 AM 38.0719 122.5176 142° Southeast 460 529 30,300 -1,477 Descending FlightAware ADS-B (ZSQD / TAO)
Tue 04:58:05 AM 38.0156 122.5797 135° Southeast 460 529 29,500 -1,161 Descending FlightAware ADS-B (ZSQD / TAO)
Tue 04:58:35 AM 37.9726 122.6351 134° Southeast 468 539 29,100 -343 Descending FlightAware ADS-B (ZSQD / TAO)
Tue 04:59:15 AM 37.9106 122.7137 134° Southeast 471 542 29,100  Level FlightAware ADS-B (ZSQD / TAO)
Tue 04:59:44 AM 37.8689 122.7674 134° Southeast 471 542 29,100  Level FlightAware ADS-B (ZSQD / TAO)
Tue 05:00:14 AM 37.8215 122.8286 134° Southeast 471 542 29,100  Level FlightAware ADS-B (ZSQD / TAO)
Tue 05:00:28 AM 37.8107 122.8425 134° Southeast 471 542 29,100  Level FlightAware ADS-B (ZSQD / TAO)
Tue 05:01:45 AM 37.6818 123.0082 134° Southeast 470 541 29,100  Level FlightAware ADS-B (ZSQD / TAO)
Tue 05:02:06 AM 37.6498 123.0491 134° Southeast 470 541 29,100 -142 Level FlightAware ADS-B (ZSQD / TAO)
Tue 05:09:31 AM 37.2130 124.1064 90° East 492 566 28,000 -259 Descending FlightAware ADS-B
Tue 05:10:12 AM 37.2127 124.2212 90° East 490 564 27,000 -1,407 Descending FlightAware ADS-B
Tue 05:10:52 AM 37.2125 124.2928 90° East 487 560 26,100 -1,425 Descending FlightAware ADS-B
Tue 05:11:32 AM 37.2118 124.4398 90° East 481 554 25,100 -825 Descending FlightAware ADS-B
Tue 05:12:12 AM 37.2110 124.5592 90° East 485 558 25,000 -375 Descending FlightAware ADS-B
Tue 05:12:52 AM 37.2103 124.6709 90° East 482 555 24,600 -1,077 Descending FlightAware ADS-B
Tue 05:13:30 AM 37.2096 124.7761 91° East 476 548 23,600 -1,747 Descending FlightAware ADS-B
Tue 05:14:11 AM 37.2087 124.8885 91° East 464 534 22,300 -1,735 Descending FlightAware ADS-B
Tue 05:14:53 AM 37.2077 124.9984 91° East 453 521 21,200 -1,725 Descending FlightAware ADS-B
Tue 05:15:31 AM 37.2067 125.0967 91° East 446 513 20,000 -1,747 Descending FlightAware ADS-B
Tue 05:16:12 AM 37.2055 125.2039 91° East 434 499 18,900 -1,683 Descending FlightAware ADS-B
Tue 05:16:53 AM 37.2042 125.3025 91° East 423 487 17,700 -1,425 Descending FlightAware ADS-B
Tue 05:17:32 AM 37.2030 125.3991 91° East 409 471 17,000 -1,077 Descending FlightAware ADS-B
Tue 05:18:11 AM 37.2052 125.4915 87° East 406 467 16,300 -1,740 Descending FlightAware ADS-B
Tue 05:19:12 AM 37.2108 125.6296 88° East 387 445 14,100 -2,059 Descending FlightAware ADS-B
Tue 05:19:53 AM 37.2136 125.7153 88° East 374 430 12,800 -2,000 Descending FlightAware ADS-B
Tue 05:20:33 AM 37.2167 125.8053 88° East 364 419 11,400 -1,519 Descending FlightAware ADS-B
Tue 05:21:12 AM 37.2193 125.8866 88° East 335 386 10,800 -900 Descending FlightAware ADS-B
Tue 05:21:53 AM 37.2222 125.9611 87° East 308 354 10,200 -800 Descending FlightAware ADS-B
Tue 05:22:12 AM 37.2236 125.9947 87° East 296 341 10,000 -1,077 Descending FlightAware ADS-B
Tue 05:22:32 AM 37.2252 126.0295 87° East 291 335 9,500 -1,463 Descending FlightAware ADS-B
Tue 05:22:53 AM 37.2264 126.0631 88° East 288 331 9,000 -1,500 Descending FlightAware ADS-B
Tue 05:23:12 AM 37.2278 126.0966 87° East 285 328 8,500 -1,692 Descending FlightAware ADS-B
Tue 05:23:32 AM 37.2293 126.1294 87° East 280 322 7,900 -1,950 Descending FlightAware ADS-B
Tue 05:23:52 AM 37.2309 126.1617 86° East 277 319 7,200 -2,049 Descending FlightAware ADS-B
Tue 05:24:13 AM 37.2327 126.1929 86° East 273 314 6,500 -2,250 Descending FlightAware ADS-B
Tue 05:24:32 AM 37.2345 126.2237 86° East 271 312 5,700 -2,308 Descending FlightAware ADS-B
Tue 05:24:52 AM 37.2361 126.2559 86° East 271 312 5,000 -1,756 Descending FlightAware ADS-B
Tue 05:25:13 AM 37.2377 126.2877 87° East 270 311 4,500 -1,171 Descending FlightAware ADS-B
Tue 05:25:33 AM 37.2391 126.3178 87° East 260 299 4,200 -750 Descending FlightAware ADS-B
Tue 05:25:53 AM 37.2405 126.3477 87° East 250 288 4,000 -632 Descending FlightAware ADS-B
Tue 05:26:11 AM 37.2418 126.3740 87° East 239 275 3,800 -712 Descending FlightAware ADS-B
Tue 05:26:52 AM 37.2444 126.4282 87° East 220 253 3,300 -689 Descending FlightAware ADS-B
Tue 05:27:12 AM 37.2456 126.4540 87° East 213 245 3,100 -769 Descending FlightAware ADS-B
Tue 05:27:31 AM 37.2468 126.4771 83° East 209 241 2,800 -732 Descending FlightAware ADS-B
Tue 05:27:53 AM 37.2556 126.4997 53° Northeast 200 230 2,600 -714 Descending FlightAware ADS-B
Tue 05:28:13 AM 37.2670 126.5179 51° Northeast 196 226 2,300 -600 Descending FlightAware ADS-B
Tue 05:28:33 AM 37.2782 126.5357 52° Northeast 197 227 2,200 -158 Descending FlightAware ADS-B
Tue 05:28:51 AM 37.2881 126.5498 35° Northeast 197 227 2,200  Level FlightAware ADS-B
Tue 05:29:12 AM 37.3085 126.5550 354° North 198 228 2,200  Level FlightAware ADS-B
Tue 05:29:32 AM 37.3246 126.5467 327° Northwest 197 227 2,200  Level FlightAware ADS-B
Tue 05:29:52 AM 37.3397 126.5337 326° Northwest 196 226 2,200  Level FlightAware ADS-B
Tue 05:30:10 AM 37.3467 126.5276 325° Northwest 168 193 2,200 -300 Level FlightAware ADS-B
Tue 05:30:32 AM 37.3601 126.5157 325° Northwest 153 176 2,000 -732 Descending FlightAware ADS-B
Tue 05:30:51 AM 37.3762 126.5015 325° Northwest 142 163 1,700 -947 Descending FlightAware ADS-B
Tue 05:33:00 AM 37.4691 126.4505 336° Northwest  Level Estimated
Tue 05:34:00 AM 37.4691 126.4505 North  Level Estimated
Tue 05:35:00 AM 37.4691 126.4505 North  Level Estimated
Tue 05:36:00 AM 37.4691 126.4505 North  Level Estimated
Tue 05:37:00 AM 37.4691 126.4505 North  Level Estimated

Login

Don't have an account? Register now (free) for customized features, flight alerts, and more!